SBIL Informações do Aeroporto

Informações da Pista
Pista 11 Comprimento 5174 ft Largura 148 ft
Elevação 0 ft Limite 0 ft Heading 0
Pista 29 Comprimento 5174 ft Largura 148 ft
Elevação 0 ft Limite 0 ft Heading 0
Frequências do Aeroporto
Tipo APP Nome APP Frequência 120.1 MHZ
Navaids do Aeroporto
Tipo NDB Nome Ilheus Frequência 305 KHZ
Informações meteorológicas do aeroporto e NOTAM
ADDS - METARS form results

(1826 UTC 20 January 2021)
Data provider http://aviationweather.gov/metar/data/
 
METAR text: SBIL 201800Z 08011KT 9999 FEW018 FEW025TCU SCT070 30/21 Q1013
Conditions at: SBIL (ILHEUS AIRPORT , BR) observed 1800 UTC 20 January 2021
Temperature: 30.0°C (86°F)
Dewpoint: 21.0°C (70°F) [RH = 59%]
Pressure (altimeter): 29.91 inches Hg (1013.0 mb)
Winds: from the E (80 degrees) at 13 MPH (11 knots; 5.7 m/s)
Visibility: 6 or more miles (10+ km)
Ceiling: at least 12,000 feet AGL
Clouds: few clouds at 1800 feet AGL
few clouds at 2500 feet AGL
scattered clouds at 7000 feet AGL
Weather: no significant weather observed at this time

Forecast for: SBIL (ILHEUS AIRPORT , BR)
Text: TAF SBIL 201540Z 2018/2106 09007KT 9999 SCT023TX29/2018Z TN23/2105Z RMK PGM
Forecast period: 1800 UTC 20 January 2021 to 0600 UTC 21 January 2021
Forecast type: FROM: standard forecast or significant change
Winds: from the E (90 degrees) at 8 MPH (7 knots; 3.6 m/s)
Visibility: 6 or more miles (10+ km)
Ceiling: unknown
Clouds: missing
Weather: no significant weather forecast for this period